createdAt,value
2023-04-15T00:04:46.984Z,-324.00
2023-04-15T00:10:31.574Z,-324.00
2023-04-15T00:16:18.422Z,-324.00
2023-04-15T00:22:01.555Z,-324.00
2023-04-15T00:27:49.247Z,-324.00
2023-04-15T00:33:31.596Z,-324.00
2023-04-15T00:38:44.294Z,-396.00
2023-04-15T00:44:32.959Z,-324.00
2023-04-15T00:50:18.738Z,-360.00
2023-04-15T00:56:05.092Z,-324.00
2023-04-15T01:01:53.249Z,-324.00
2023-04-15T01:07:10.056Z,-360.00
2023-04-15T01:13:01.640Z,-360.00
2023-04-15T01:18:10.529Z,-360.00
2023-04-15T01:23:20.250Z,-360.00
2023-04-15T01:28:45.396Z,-396.00
2023-04-15T01:34:02.974Z,-396.00
2023-04-15T01:39:52.573Z,-324.00
2023-04-15T01:45:19.718Z,-360.00
2023-04-15T01:50:55.417Z,-324.00
2023-04-15T01:56:48.999Z,-324.00
2023-04-15T02:01:59.774Z,-360.00
2023-04-15T02:07:42.206Z,-324.00
2023-04-15T02:13:12.706Z,-360.00
2023-04-15T02:18:35.109Z,-360.00
2023-04-15T02:24:25.547Z,-360.00
2023-04-15T02:29:15.075Z,-360.00
2023-04-15T02:34:22.956Z,-396.00
2023-04-15T02:39:30.479Z,-324.00
2023-04-15T02:44:37.752Z,-360.00
2023-04-15T02:49:48.073Z,-360.00
2023-04-15T02:54:55.519Z,-324.00
2023-04-15T03:00:02.855Z,-360.00
2023-04-15T03:05:10.273Z,-360.00
2023-04-15T03:10:18.471Z,-360.00
2023-04-15T03:15:25.774Z,-360.00
2023-04-15T03:20:33.137Z,-360.00
2023-04-15T03:25:40.305Z,-360.00
2023-04-15T03:30:47.523Z,-360.00
2023-04-15T03:35:54.820Z,-396.00
2023-04-15T03:41:02.098Z,-360.00
2023-04-15T03:46:09.337Z,-360.00
2023-04-15T03:51:16.532Z,-360.00
2023-04-15T03:56:23.731Z,-360.00
2023-04-15T04:01:31.006Z,-360.00
2023-04-15T04:06:38.306Z,-360.00
2023-04-15T04:11:45.577Z,-360.00
2023-04-15T04:16:52.817Z,-360.00
2023-04-15T04:21:59.973Z,-396.00
2023-04-15T04:27:07.215Z,-360.00
2023-04-15T04:32:14.542Z,-360.00
2023-04-15T04:37:21.713Z,-360.00
2023-04-15T04:42:28.880Z,-324.00
2023-04-15T04:47:36.150Z,-324.00
2023-04-15T04:52:43.352Z,-324.00
2023-04-15T04:57:50.544Z,-324.00
2023-04-15T05:02:57.932Z,-324.00
2023-04-15T05:08:05.305Z,-288.00
2023-04-15T05:13:12.580Z,-324.00
2023-04-15T05:18:19.828Z,-252.00
2023-04-15T05:23:27.079Z,-252.00
2023-04-15T05:28:34.382Z,-252.00
2023-04-15T05:33:42.024Z,-216.00
2023-04-15T05:38:49.545Z,-216.00
2023-04-15T05:44:06.125Z,-216.00
2023-04-15T05:49:13.954Z,-180.00
2023-04-15T05:54:21.389Z,-108.00
2023-04-15T05:59:29.075Z,-144.00
2023-04-15T06:04:44.882Z,-144.00
2023-04-15T06:09:52.445Z,-108.00
2023-04-15T06:15:07.515Z,-36.00
2023-04-15T06:20:15.009Z,-72.00
2023-04-15T06:25:57.975Z,-72.00
2023-04-15T06:31:08.720Z,-36.00
2023-04-15T06:36:56.387Z,-36.00
2023-04-15T06:42:12.052Z,-72.00
2023-04-15T06:47:37.135Z,-108.00
2023-04-15T06:52:32.018Z,-36.00
2023-04-15T06:57:39.323Z,-36.00
2023-04-15T07:02:46.687Z,-72.00
2023-04-15T07:07:54.111Z,0.00
2023-04-15T07:13:11.248Z,0.00
2023-04-15T07:18:53.679Z,108.00
2023-04-15T07:24:01.141Z,36.00
2023-04-15T07:29:16.272Z,72.00
2023-04-15T07:35:05.665Z,180.00
2023-04-15T07:40:28.325Z,180.00
2023-04-15T07:45:36.087Z,180.00
2023-04-15T07:51:02.290Z,108.00
2023-04-15T07:56:09.974Z,72.00
2023-04-15T08:01:52.553Z,144.00
2023-04-15T08:07:39.321Z,144.00
2023-04-15T08:12:46.589Z,108.00
2023-04-15T08:17:54.117Z,180.00
2023-04-15T08:23:06.267Z,180.00
2023-04-15T08:28:28.942Z,144.00
2023-04-15T08:33:36.289Z,23436.00
2023-04-15T08:38:43.455Z,24408.00
2023-04-15T08:43:50.715Z,25020.00
2023-04-15T08:48:57.986Z,25416.00
2023-04-15T08:54:05.092Z,25884.00
2023-04-15T08:59:12.278Z,25956.00
2023-04-15T09:04:19.672Z,26028.00
2023-04-15T09:09:26.652Z,26136.00
2023-04-15T09:14:33.914Z,26172.00
2023-04-15T09:19:42.723Z,25992.00
2023-04-15T09:24:49.884Z,26100.00
2023-04-15T09:29:57.103Z,26136.00
2023-04-15T09:35:04.281Z,26064.00
2023-04-15T09:40:11.443Z,26748.00
2023-04-15T09:45:18.637Z,26856.00
2023-04-15T09:50:25.840Z,27036.00
2023-04-15T09:55:32.995Z,27144.00
2023-04-15T10:00:40.309Z,27144.00
2023-04-15T10:05:48.806Z,27180.00
2023-04-15T10:10:55.969Z,27396.00
2023-04-15T10:16:03.220Z,27252.00
2023-04-15T10:21:10.515Z,27432.00
2023-04-15T10:26:17.775Z,27648.00
2023-04-15T10:31:24.925Z,27504.00
2023-04-15T10:36:32.116Z,27216.00
2023-04-15T10:41:39.299Z,27252.00
2023-04-15T10:46:46.625Z,27252.00
2023-04-15T10:51:53.815Z,27036.00
2023-04-15T10:57:00.946Z,27072.00
2023-04-15T11:02:08.327Z,27360.00
2023-04-15T11:07:15.543Z,27072.00
2023-04-15T11:12:22.709Z,26208.00
2023-04-15T11:17:30.024Z,26064.00
2023-04-15T11:22:37.176Z,26280.00
2023-04-15T11:27:44.333Z,27000.00
2023-04-15T11:32:51.541Z,27540.00
2023-04-15T11:37:58.745Z,27720.00
2023-04-15T11:43:06.006Z,27396.00
2023-04-15T11:48:13.252Z,26244.00
2023-04-15T11:53:20.513Z,25992.00
2023-04-15T11:58:27.760Z,26532.00
2023-04-15T12:03:35.078Z,27288.00
2023-04-15T12:08:42.266Z,27612.00
2023-04-15T12:13:49.482Z,27720.00
2023-04-15T12:18:56.708Z,27144.00
2023-04-15T12:24:04.366Z,26460.00
2023-04-15T12:29:11.095Z,26676.00
2023-04-15T12:34:20.184Z,26388.00
2023-04-15T12:39:29.281Z,26748.00
2023-04-15T12:44:34.650Z,27036.00
2023-04-15T12:49:41.862Z,26712.00
2023-04-15T12:54:49.155Z,26388.00
2023-04-15T12:59:56.429Z,26136.00
2023-04-15T13:05:03.650Z,26496.00
2023-04-15T13:10:10.964Z,26496.00
2023-04-15T13:15:18.703Z,26244.00
2023-04-15T13:20:25.950Z,26316.00
2023-04-15T13:25:33.191Z,26136.00
2023-04-15T13:30:40.509Z,25668.00
2023-04-15T13:35:47.692Z,25416.00
2023-04-15T13:40:55.153Z,25884.00
2023-04-15T13:46:02.524Z,25920.00
2023-04-15T13:51:12.970Z,25920.00
2023-04-15T13:56:20.250Z,25596.00
2023-04-15T14:01:27.551Z,24660.00
2023-04-15T14:06:34.744Z,23184.00
2023-04-15T14:11:42.173Z,21456.00
2023-04-15T14:16:49.534Z,19476.00
2023-04-15T14:21:56.769Z,20592.00
2023-04-15T14:27:06.019Z,18612.00
2023-04-15T14:32:14.404Z,20844.00
2023-04-15T14:37:20.726Z,24228.00
2023-04-15T14:42:28.266Z,23796.00
2023-04-15T14:47:35.533Z,22284.00
2023-04-15T14:52:42.816Z,21816.00
2023-04-15T14:57:50.309Z,21060.00
2023-04-15T15:02:57.636Z,19404.00
2023-04-15T15:08:04.849Z,14256.00
2023-04-15T15:13:12.252Z,14580.00
2023-04-15T15:18:19.794Z,17640.00
2023-04-15T15:23:27.729Z,18432.00
2023-04-15T15:28:35.068Z,20088.00
2023-04-15T15:33:42.236Z,20556.00
2023-04-15T15:38:49.456Z,22500.00
2023-04-15T15:43:56.705Z,21312.00
2023-04-15T15:49:04.038Z,19656.00
2023-04-15T15:54:11.127Z,18396.00
2023-04-15T15:59:18.344Z,15840.00
2023-04-15T16:04:25.768Z,17712.00
2023-04-15T16:09:33.134Z,16776.00
2023-04-15T16:14:40.525Z,15408.00
2023-04-15T16:19:58.001Z,14148.00
2023-04-15T16:24:54.940Z,10116.00
2023-04-15T16:30:02.199Z,10260.00
2023-04-15T16:35:09.628Z,10044.00
2023-04-15T16:40:17.251Z,9720.00
2023-04-15T16:45:27.932Z,7704.00
2023-04-15T16:50:35.433Z,6588.00
2023-04-15T16:55:43.071Z,3348.00
2023-04-15T17:00:50.485Z,1332.00
2023-04-15T17:05:57.644Z,6984.00
2023-04-15T17:11:04.850Z,6048.00
2023-04-15T17:16:12.139Z,6012.00
2023-04-15T17:21:19.591Z,5940.00
2023-04-15T17:26:27.011Z,5364.00
2023-04-15T17:31:34.484Z,5472.00
2023-04-15T17:36:41.718Z,5436.00
2023-04-15T17:41:49.426Z,5040.00
2023-04-15T17:46:57.205Z,4932.00
2023-04-15T17:52:04.475Z,4752.00
2023-04-15T17:57:11.966Z,4860.00
2023-04-15T18:02:19.817Z,4716.00
2023-04-15T18:07:27.061Z,4752.00
2023-04-15T18:12:34.702Z,4752.00
2023-04-15T18:17:42.351Z,4788.00
2023-04-15T18:22:50.036Z,4680.00
2023-04-15T18:27:57.539Z,4788.00
2023-04-15T18:33:05.189Z,4824.00
2023-04-15T18:38:12.708Z,4716.00
2023-04-15T18:43:20.396Z,4752.00
2023-04-15T18:48:28.072Z,5076.00
2023-04-15T18:53:35.723Z,5112.00
2023-04-15T18:59:26.317Z,5148.00
2023-04-15T19:03:51.181Z,5148.00
2023-04-15T19:08:58.595Z,5184.00
2023-04-15T19:14:05.826Z,5184.00
2023-04-15T19:19:13.478Z,4788.00
2023-04-15T19:24:20.816Z,4824.00
2023-04-15T19:29:29.131Z,4896.00
2023-04-15T19:34:36.952Z,4896.00
2023-04-15T19:39:44.573Z,4788.00
2023-04-15T19:44:52.279Z,5148.00
2023-04-15T19:50:00.035Z,4824.00
2023-04-15T19:55:07.722Z,4860.00
2023-04-15T20:00:15.332Z,5184.00
2023-04-15T20:05:22.997Z,5184.00
2023-04-15T20:10:30.558Z,5220.00
2023-04-15T20:15:38.294Z,5184.00
2023-04-15T20:20:45.910Z,5076.00
2023-04-15T20:25:53.495Z,5040.00
2023-04-15T20:31:01.246Z,4968.00
2023-04-15T20:36:09.890Z,5148.00
2023-04-15T20:41:17.585Z,5292.00
2023-04-15T20:46:27.176Z,5328.00
2023-04-15T20:51:32.523Z,5004.00
2023-04-15T20:56:40.216Z,5076.00
2023-04-15T21:01:47.670Z,4968.00
2023-04-15T21:06:56.099Z,4968.00
2023-04-15T21:12:03.327Z,4896.00
2023-04-15T21:17:11.374Z,5004.00
2023-04-15T21:22:17.902Z,5256.00
2023-04-15T21:27:25.085Z,5148.00
2023-04-15T21:32:32.277Z,5148.00
2023-04-15T21:37:39.550Z,5112.00
2023-04-15T21:42:47.343Z,5148.00
2023-04-15T21:48:05.845Z,5112.00
2023-04-15T21:53:01.910Z,5256.00
2023-04-15T21:58:09.252Z,5076.00
2023-04-15T22:03:16.611Z,5076.00
2023-04-15T22:08:23.794Z,5292.00
2023-04-15T22:13:31.030Z,5220.00
2023-04-15T22:18:38.323Z,5184.00
2023-04-15T22:23:45.586Z,5292.00
2023-04-15T22:28:52.830Z,5400.00
2023-04-15T22:34:00.176Z,5184.00
2023-04-15T22:39:07.899Z,5220.00
2023-04-15T22:44:14.924Z,5256.00
2023-04-15T22:49:22.121Z,5184.00
2023-04-15T22:54:29.863Z,5184.00
2023-04-15T22:59:37.133Z,5328.00
2023-04-15T23:04:44.589Z,5400.00
2023-04-15T23:09:56.021Z,5436.00
2023-04-15T23:15:04.180Z,5400.00
2023-04-15T23:20:46.622Z,-360.00
2023-04-15T23:26:17.086Z,-396.00
2023-04-15T23:31:12.444Z,-360.00
2023-04-15T23:36:35.444Z,-360.00
2023-04-15T23:42:03.928Z,-432.00
2023-04-15T23:46:56.053Z,-360.00
2023-04-15T23:52:12.144Z,-360.00
2023-04-15T23:57:40.816Z,-360.00
